KESC

Delta County Airport

Escanaba, Michigan, USA
METAR KESC 250056Z AUTO 20008KT 10SM CLR 18/11 A2997 RMK AO2 SLP166 T01830111
Observed Flight Rules
May-25 @ 00:56 UTC (16 minutes ago) Visual Flight Rules
Wind Visibility Clouds
200° at 8 knots 10 miles
  • Clear skies
Temperatures Readings
Current 18°C / 64°F
Dewpoint 11°C / 52°F
Humidity 64%
Altimeter 29.97" Hg
Pressure 1016.6 hPa
Elevation 187
METAR KESC 250056Z AUTO 20008KT 10SM CLR 18/11 A2997 RMK AO2 SLP166 T01830111
Observed Flight Rules
May-25 @ 00:56 UTC
(16 minutes ago)
VFR
Wind Visibility
200° at 8 knots 10 miles
Clouds
  • Clear skies
Temperature Dewpoint
18°C / 64°F 11°C / 52°F
Humidity Altimeter Pressure
64% 29.97" Hg 1016.6 hPa